Time;durP1;ratioP1;P1;durP2;ratioP2;P2;SDS_P1;SDS_P2;PMS_P1;PMS_P2;Temp;Humidity;BMP_temperature;BMP_pressure;BME280_temperature;BME280_humidity;BME280_pressure;Samples;Min_cycle;Max_cycle;Signal;HPM_P1;HPM_P2
2022/09/02 00:00:40;;;;;;;0.40;0.40;;;21.40;41.60;;;;;;5028688;28;20404;-66
2022/09/02 00:03:05;;;;;;;0.30;0.30;;;21.40;41.70;;;;;;5029380;28;20079;-66
2022/09/02 00:05:31;;;;;;;0.63;0.20;;;21.30;41.70;;;;;;5029483;28;20029;-66
2022/09/02 00:07:57;;;;;;;0.20;0.20;;;21.30;41.70;;;;;;5037449;28;20052;-71
2022/09/02 00:10:22;;;;;;;0.25;0.20;;;21.20;41.80;;;;;;5011022;28;20462;-70
2022/09/02 00:12:48;;;;;;;0.40;0.40;;;21.20;41.90;;;;;;5011411;28;20041;-67
2022/09/02 00:15:14;;;;;;;2.15;0.30;;;21.20;42.00;;;;;;5012570;28;20041;-66
2022/09/02 00:17:39;;;;;;;0.50;0.50;;;21.10;42.00;;;;;;5033310;28;20120;-65
2022/09/02 00:20:05;;;;;;;0.25;0.25;;;21.10;42.10;;;;;;5015023;28;20037;-70
2022/09/02 00:22:31;;;;;;;0.40;0.40;;;21.10;42.10;;;;;;5031899;28;20102;-70
2022/09/02 00:24:57;;;;;;;0.55;0.30;;;21.10;42.20;;;;;;5015691;28;20026;-70
2022/09/02 00:27:23;;;;;;;0.20;0.20;;;21.00;42.30;;;;;;5040778;28;20032;-66
2022/09/02 00:29:48;;;;;;;0.20;0.20;;;21.00;42.30;;;;;;5033047;28;20048;-66
2022/09/02 00:32:14;;;;;;;0.30;0.30;;;20.90;42.40;;;;;;5033294;28;20028;-66
2022/09/02 00:34:40;;;;;;;0.85;0.82;;;20.90;42.40;;;;;;5041410;28;20038;-66
2022/09/02 00:37:05;;;;;;;1.27;0.40;;;20.90;42.40;;;;;;5033628;28;20037;-66
2022/09/02 00:39:31;;;;;;;0.38;0.25;;;20.80;42.40;;;;;;5032864;28;20042;-70
2022/09/02 00:41:57;;;;;;;0.20;0.20;;;20.80;42.50;;;;;;5032227;28;20021;-70
2022/09/02 00:44:23;;;;;;;0.30;0.30;;;20.80;42.60;;;;;;5042747;28;20329;-67
2022/09/02 00:46:49;;;;;;;0.75;0.30;;;20.70;42.60;;;;;;5032757;28;20037;-67
2022/09/02 00:49:23;;;;;;;0.40;0.30;;;20.80;42.70;;;;;;5032852;28;20034;-67
2022/09/02 00:51:54;;;;;;;0.20;0.20;;;20.70;42.70;;;;;;5032571;28;20084;-67
2022/09/02 00:54:22;;;;;;;0.50;0.50;;;20.70;42.80;;;;;;5015114;28;20507;-67
2022/09/02 00:56:48;;;;;;;0.20;0.20;;;20.70;42.90;;;;;;5029996;28;20025;-67
2022/09/02 00:59:26;;;;;;;0.57;0.50;;;20.60;42.90;;;;;;5031553;28;20546;-71
2022/09/02 01:01:51;;;;;;;0.30;0.30;;;20.60;43.00;;;;;;5032564;28;20025;-72
2022/09/02 01:04:17;;;;;;;0.20;0.20;;;20.60;43.10;;;;;;4998039;28;20026;-71
2022/09/02 01:06:43;;;;;;;0.43;0.28;;;20.60;43.20;;;;;;5032546;28;20051;-71
2022/09/02 01:09:15;;;;;;;0.20;0.20;;;20.50;43.20;;;;;;4996666;28;20103;-68
2022/09/02 01:11:46;;;;;;;0.73;0.50;;;20.50;43.30;;;;;;5032002;28;20032;-71
2022/09/02 01:14:14;;;;;;;0.30;0.20;;;20.50;43.50;;;;;;5030743;28;20029;-67
2022/09/02 01:16:44;;;;;;;0.20;0.20;;;20.40;43.50;;;;;;5032008;28;20029;-71
2022/09/02 01:19:21;;;;;;;0.30;0.30;;;20.40;43.40;;;;;;5013364;28;20112;-71
2022/09/02 01:21:49;;;;;;;0.40;0.40;;;20.40;43.50;;;;;;5013963;28;20490;-67
2022/09/02 01:24:17;;;;;;;0.77;0.77;;;20.40;43.50;;;;;;5034870;28;20021;-67
2022/09/02 01:26:44;;;;;;;0.30;0.30;;;20.30;43.40;;;;;;5031402;28;20025;-71
2022/09/02 01:29:09;;;;;;;1.75;0.50;;;20.30;43.50;;;;;;5014336;28;20033;-71
2022/09/02 01:31:35;;;;;;;0.20;0.20;;;20.30;43.60;;;;;;5014023;28;20120;-67
2022/09/02 01:34:01;;;;;;;0.38;0.38;;;20.30;43.60;;;;;;5032085;28;20551;-67
2022/09/02 01:36:26;;;;;;;0.30;0.30;;;20.30;43.60;;;;;;5030928;28;20603;-68
2022/09/02 01:38:52;;;;;;;0.30;0.30;;;20.30;43.70;;;;;;5036681;28;20250;-67
2022/09/02 01:41:18;;;;;;;0.65;0.32;;;20.20;43.60;;;;;;5030976;28;20041;-67
2022/09/02 01:43:43;;;;;;;0.35;0.35;;;20.30;43.70;;;;;;5031683;28;20052;-67
2022/09/02 01:46:09;;;;;;;0.68;0.45;;;20.30;43.60;;;;;;5031566;28;20425;-67
2022/09/02 01:48:35;;;;;;;0.40;0.40;;;20.30;43.60;;;;;;5014196;28;20060;-68
2022/09/02 01:51:04;;;;;;;0.50;0.40;;;20.30;43.50;;;;;;5032737;28;20132;-68
2022/09/02 01:53:31;;;;;;;0.30;0.30;;;20.30;43.50;;;;;;5030694;28;20392;-68
2022/09/02 01:55:57;;;;;;;0.32;0.32;;;20.30;43.50;;;;;;5014559;28;20030;-67
2022/09/02 01:58:22;;;;;;;0.38;0.38;;;20.30;43.60;;;;;;5000169;28;20032;-67
2022/09/02 02:00:48;;;;;;;0.40;0.40;;;20.30;43.60;;;;;;5038174;28;20029;-68
2022/09/02 02:03:14;;;;;;;0.30;0.20;;;20.30;43.50;;;;;;5035564;28;20033;-66
2022/09/02 02:05:40;;;;;;;0.32;0.20;;;20.20;43.50;;;;;;5035502;28;20029;-67
2022/09/02 02:08:08;;;;;;;0.47;0.47;;;20.20;43.60;;;;;;5030939;28;20044;-67
2022/09/02 02:10:34;;;;;;;0.90;0.30;;;20.20;43.60;;;;;;5030657;28;20535;-68
2022/09/02 02:13:00;;;;;;;0.30;0.30;;;20.20;43.70;;;;;;5014685;28;20033;-68
2022/09/02 02:15:26;;;;;;;0.30;0.30;;;20.20;43.70;;;;;;5018511;28;20033;-68
2022/09/02 02:17:52;;;;;;;2.45;0.22;;;20.20;43.70;;;;;;5013480;28;20540;-68
2022/09/02 02:20:20;;;;;;;0.30;0.30;;;20.20;43.70;;;;;;5030437;28;20025;-68
2022/09/02 02:22:46;;;;;;;6.88;0.50;;;20.20;43.70;;;;;;5030759;28;20485;-67
2022/09/02 02:25:14;;;;;;;0.30;0.30;;;20.20;43.80;;;;;;5036697;28;20031;-68
2022/09/02 02:27:40;;;;;;;0.30;0.25;;;20.10;43.70;;;;;;5031020;28;20493;-68
2022/09/02 02:30:07;;;;;;;0.22;0.22;;;20.10;43.80;;;;;;5037779;28;20067;-67
2022/09/02 02:32:34;;;;;;;0.30;0.25;;;20.20;43.80;;;;;;5013803;28;20056;-71
2022/09/02 02:35:00;;;;;;;0.68;0.40;;;20.10;43.80;;;;;;5030390;28;20029;-68
2022/09/02 02:37:26;;;;;;;0.28;0.28;;;20.10;43.90;;;;;;5031875;28;20029;-68
2022/09/02 02:39:52;;;;;;;0.40;0.40;;;20.10;44.00;;;;;;5030257;28;20021;-67
2022/09/02 02:42:17;;;;;;;0.77;0.38;;;20.00;44.00;;;;;;5030346;28;20477;-67
2022/09/02 02:44:43;;;;;;;0.30;0.30;;;20.10;44.10;;;;;;5030348;28;20038;-71
2022/09/02 02:47:09;;;;;;;0.32;0.32;;;20.00;44.10;;;;;;5030380;28;20034;-67
2022/09/02 02:49:39;;;;;;;0.30;0.30;;;20.00;44.10;;;;;;5012494;28;20076;-68
2022/09/02 02:52:05;;;;;;;0.30;0.30;;;20.00;44.10;;;;;;5030056;28;20029;-71
2022/09/02 02:54:30;;;;;;;1.08;0.52;;;19.90;44.20;;;;;;5030319;28;20037;-67
2022/09/02 02:56:56;;;;;;;0.60;0.55;;;19.90;44.20;;;;;;5032464;28;20370;-67
2022/09/02 02:59:22;;;;;;;0.25;0.25;;;19.90;44.30;;;;;;5012970;28;20037;-67
2022/09/02 03:01:47;;;;;;;0.75;0.30;;;19.90;44.30;;;;;;5029722;28;20499;-67
2022/09/02 03:04:13;;;;;;;0.20;0.20;;;19.90;44.40;;;;;;5030490;28;20041;-68
2022/09/02 03:06:39;;;;;;;0.43;0.32;;;19.90;44.40;;;;;;5029579;28;20125;-68
2022/09/02 03:09:05;;;;;;;0.40;0.40;;;19.90;44.40;;;;;;5036291;28;20425;-68
2022/09/02 03:11:31;;;;;;;0.73;0.38;;;19.90;44.40;;;;;;5012722;28;20026;-68
2022/09/02 03:13:57;;;;;;;0.28;0.28;;;19.90;44.40;;;;;;5029695;28;20030;-67
2022/09/02 03:16:23;;;;;;;0.65;0.30;;;19.90;44.50;;;;;;5032452;28;20014;-71
2022/09/02 03:18:49;;;;;;;0.30;0.30;;;19.90;44.70;;;;;;5025994;28;20029;-71
2022/09/02 03:21:16;;;;;;;0.38;0.30;;;19.80;44.70;;;;;;5030040;28;20385;-71
2022/09/02 03:23:43;;;;;;;0.20;0.20;;;19.80;44.70;;;;;;5029353;28;20042;-71
2022/09/02 03:26:15;;;;;;;0.55;0.30;;;19.80;44.60;;;;;;5011923;28;20065;-71
2022/09/02 03:28:40;;;;;;;0.70;0.27;;;19.80;44.50;;;;;;5029530;28;20025;-72
2022/09/02 03:31:06;;;;;;;0.40;0.40;;;19.80;44.60;;;;;;5012038;28;20030;-72
2022/09/02 03:33:33;;;;;;;0.30;0.30;;;19.80;44.70;;;;;;5029935;28;20104;-72
2022/09/02 03:35:58;;;;;;;0.20;0.20;;;19.80;44.70;;;;;;5028645;28;20637;-72
2022/09/02 03:38:24;;;;;;;0.30;0.30;;;19.80;44.70;;;;;;5028011;28;20113;-72
2022/09/02 03:40:50;;;;;;;2.08;1.02;;;19.70;44.70;;;;;;5027080;28;20059;-72
2022/09/02 03:43:16;;;;;;;0.28;0.25;;;19.70;44.70;;;;;;5023882;28;20062;-72
2022/09/02 03:45:42;;;;;;;0.88;0.40;;;19.70;44.90;;;;;;5028819;28;20038;-72
2022/09/02 03:48:10;;;;;;;0.82;0.30;;;19.70;44.90;;;;;;5028716;28;20080;-68
2022/09/02 03:50:38;;;;;;;0.30;0.30;;;19.70;44.90;;;;;;5026108;28;20029;-67
2022/09/02 03:53:06;;;;;;;0.40;0.40;;;19.70;44.90;;;;;;5029064;28;20385;-71
2022/09/02 03:55:32;;;;;;;0.30;0.20;;;19.70;44.90;;;;;;5028716;28;20499;-72
2022/09/02 03:57:58;;;;;;;1.10;0.20;;;19.60;44.90;;;;;;5031851;28;20104;-67
2022/09/02 04:00:27;;;;;;;0.22;0.22;;;19.60;45.00;;;;;;5028709;28;20581;-71
2022/09/02 04:02:54;;;;;;;0.65;0.47;;;19.60;45.00;;;;;;5030075;28;20104;-67
2022/09/02 04:05:21;;;;;;;0.20;0.20;;;19.60;45.10;;;;;;5029105;28;20017;-66
2022/09/02 04:07:50;;;;;;;0.30;0.30;;;19.50;45.10;;;;;;5017854;28;20492;-67
2022/09/02 04:10:15;;;;;;;0.77;0.30;;;19.60;45.10;;;;;;5010796;28;20068;-70
2022/09/02 04:12:42;;;;;;;0.38;0.38;;;19.60;45.10;;;;;;5029121;28;20072;-67
2022/09/02 04:15:10;;;;;;;0.30;0.30;;;19.60;45.10;;;;;;5030175;28;20085;-67
2022/09/02 04:17:37;;;;;;;0.30;0.30;;;19.50;45.00;;;;;;5027908;28;20080;-71
2022/09/02 04:20:05;;;;;;;0.20;0.20;;;19.60;45.10;;;;;;5029366;28;20026;-71
2022/09/02 04:22:31;;;;;;;1.20;0.30;;;19.50;45.10;;;;;;5028271;28;20042;-67
2022/09/02 04:24:57;;;;;;;0.50;0.40;;;19.50;45.10;;;;;;5034772;28;20023;-70
2022/09/02 04:27:23;;;;;;;0.30;0.30;;;19.50;45.20;;;;;;4995792;28;20033;-71
2022/09/02 04:29:48;;;;;;;0.28;0.28;;;19.50;45.30;;;;;;5030062;28;20484;-70
2022/09/02 04:32:14;;;;;;;0.47;0.47;;;19.50;45.30;;;;;;5029177;28;20041;-71
2022/09/02 04:34:40;;;;;;;0.20;0.20;;;19.50;45.30;;;;;;5031379;28;20037;-71
2022/09/02 04:37:06;;;;;;;0.40;0.40;;;19.50;45.30;;;;;;5031991;28;20449;-67
2022/09/02 04:39:31;;;;;;;0.57;0.35;;;19.50;45.40;;;;;;5024022;28;20037;-67
2022/09/02 04:41:57;;;;;;;0.30;0.30;;;19.50;45.40;;;;;;5032578;28;20033;-67
2022/09/02 04:44:24;;;;;;;0.30;0.30;;;19.40;45.50;;;;;;5011348;28;20053;-70
2022/09/02 04:46:50;;;;;;;0.77;0.73;;;19.40;45.60;;;;;;5012618;28;20057;-71
2022/09/02 04:49:16;;;;;;;0.20;0.20;;;19.40;45.60;;;;;;5028840;28;20053;-70
2022/09/02 04:51:42;;;;;;;0.30;0.30;;;19.40;45.60;;;;;;4995022;28;20077;-66
2022/09/02 04:54:08;;;;;;;0.28;0.28;;;19.30;45.70;;;;;;5028562;28;20452;-70
2022/09/02 04:56:34;;;;;;;0.40;0.40;;;19.30;45.70;;;;;;5028075;28;20360;-66
2022/09/02 04:59:00;;;;;;;0.30;0.30;;;19.30;45.70;;;;;;5028793;28;20030;-66
2022/09/02 05:01:31;;;;;;;2.20;0.35;;;19.30;45.80;;;;;;5016616;28;20033;-66
2022/09/02 05:03:56;;;;;;;0.30;0.30;;;19.20;45.90;;;;;;5014902;28;20052;-66
2022/09/02 05:06:27;;;;;;;0.68;0.30;;;19.20;45.90;;;;;;5014696;28;20026;-67
2022/09/02 05:08:55;;;;;;;0.40;0.40;;;19.20;46.00;;;;;;5031226;28;20025;-67
2022/09/02 05:11:27;;;;;;;0.30;0.30;;;19.20;46.00;;;;;;5032896;28;20052;-67
2022/09/02 05:13:55;;;;;;;0.30;0.30;;;19.20;46.10;;;;;;5036404;28;20049;-66
2022/09/02 05:16:33;;;;;;;0.40;0.40;;;19.20;46.20;;;;;;5031834;28;20033;-66
2022/09/02 05:18:59;;;;;;;0.20;0.20;;;19.10;46.20;;;;;;5031976;28;20045;-71
2022/09/02 05:21:25;;;;;;;0.22;0.22;;;19.10;46.20;;;;;;5032170;28;20079;-67
2022/09/02 05:23:52;;;;;;;0.20;0.20;;;19.20;46.80;;;;;;5014080;28;20034;-70
2022/09/02 05:26:18;;;;;;;0.57;0.47;;;19.10;46.30;;;;;;5012017;28;20030;-70
2022/09/02 05:28:44;;;;;;;0.50;0.32;;;19.10;46.30;;;;;;5012416;28;20181;-67
2022/09/02 05:31:13;;;;;;;0.30;0.30;;;19.10;46.30;;;;;;5012490;28;20026;-70
2022/09/02 05:33:40;;;;;;;0.30;0.30;;;19.10;46.30;;;;;;5022523;28;20705;-71
2022/09/02 05:36:19;;;;;;;0.22;0.22;;;19.20;46.30;;;;;;5009355;28;20161;-70
2022/09/02 05:38:45;;;;;;;0.22;0.20;;;19.20;46.20;;;;;;5011935;28;20033;-70
2022/09/02 05:41:22;;;;;;;0.57;0.40;;;19.10;46.30;;;;;;5011409;28;20801;-70
2022/09/02 05:43:49;;;;;;;0.40;0.40;;;19.10;46.40;;;;;;5018235;28;20389;-70
2022/09/02 05:46:18;;;;;;;0.43;0.20;;;19.10;46.40;;;;;;5018771;28;20018;-71
2022/09/02 05:51:30;;;;;;;0.30;0.30;;;19.30;46.40;;;;;;5011726;28;20164;-67
2022/09/02 05:53:57;;;;;;;0.20;0.20;;;19.30;46.30;;;;;;5012898;28;20034;-66
2022/09/02 05:56:24;;;;;;;1.48;0.30;;;19.40;46.30;;;;;;5021130;28;20445;-66
2022/09/02 05:58:50;;;;;;;0.30;0.30;;;19.40;46.40;;;;;;4994775;28;20104;-66
2022/09/02 06:01:17;;;;;;;0.55;0.38;;;19.50;46.30;;;;;;4994387;28;20069;-67
2022/09/02 06:03:43;;;;;;;0.22;0.22;;;19.50;46.40;;;;;;5014347;28;20458;-66
2022/09/02 06:06:09;;;;;;;0.20;0.20;;;19.50;46.30;;;;;;5011302;28;20037;-67
2022/09/02 06:08:35;;;;;;;0.45;0.25;;;19.60;46.20;;;;;;4996586;28;20033;-67
2022/09/02 06:11:02;;;;;;;0.95;0.82;;;19.60;46.20;;;;;;4999353;28;20030;-66
2022/09/02 06:13:29;;;;;;;0.20;0.20;;;19.60;46.30;;;;;;5011915;28;20473;-67
2022/09/02 06:15:56;;;;;;;0.38;0.25;;;19.70;46.30;;;;;;5017589;28;20039;-67
2022/09/02 06:18:22;;;;;;;0.70;0.32;;;19.70;46.10;;;;;;5015739;28;20033;-67
2022/09/02 06:20:49;;;;;;;0.40;0.40;;;19.80;46.00;;;;;;4995744;28;20056;-67
2022/09/02 06:23:15;;;;;;;1.40;0.40;;;19.80;46.00;;;;;;5023673;28;20412;-67
2022/09/02 06:25:44;;;;;;;0.52;0.30;;;19.80;46.10;;;;;;5011364;28;20092;-67
2022/09/02 06:28:10;;;;;;;0.20;0.20;;;19.80;46.10;;;;;;5036640;28;20033;-67
2022/09/02 06:30:39;;;;;;;0.35;0.35;;;19.80;46.10;;;;;;5013220;28;20109;-67
2022/09/02 06:33:05;;;;;;;0.20;0.20;;;19.80;46.20;;;;;;5031060;28;20124;-67
2022/09/02 06:35:36;;;;;;;0.17;0.17;;;19.70;46.20;;;;;;5030284;28;20148;-67
2022/09/02 06:38:03;;;;;;;0.40;0.40;;;19.70;46.30;;;;;;5027839;28;20029;-71
2022/09/02 06:40:29;;;;;;;0.30;0.30;;;19.70;46.40;;;;;;5030102;28;20283;-71
2022/09/02 06:42:55;;;;;;;0.88;0.20;;;19.60;46.40;;;;;;5031043;28;20032;-71
2022/09/02 06:45:23;;;;;;;1.42;0.32;;;19.60;46.50;;;;;;5030621;28;20493;-71
2022/09/02 06:47:49;;;;;;;0.30;0.20;;;19.60;46.50;;;;;;5036673;28;20028;-71
2022/09/02 06:50:15;;;;;;;0.50;0.50;;;19.60;46.60;;;;;;5030401;28;20051;-71
2022/09/02 06:52:40;;;;;;;1.35;0.60;;;19.70;46.60;;;;;;5030850;28;20105;-71
2022/09/02 06:55:06;;;;;;;0.95;0.38;;;19.80;46.50;;;;;;5011900;28;20971;-71
2022/09/02 06:57:32;;;;;;;0.30;0.30;;;20.00;46.30;;;;;;5040092;28;20499;-71
2022/09/02 06:59:58;;;;;;;0.30;0.30;;;20.10;46.20;;;;;;5012434;28;20025;-71
2022/09/02 07:02:24;;;;;;;0.30;0.30;;;20.20;46.00;;;;;;5018314;28;20060;-67
2022/09/02 07:07:40;;;;;;;0.50;0.43;;;20.50;45.70;;;;;;5025798;28;20044;-71
2022/09/02 07:10:09;;;;;;;0.40;0.40;;;20.60;45.70;;;;;;5027746;28;20148;-71
2022/09/02 07:12:36;;;;;;;0.35;0.35;;;20.70;45.70;;;;;;5030190;28;20037;-71
2022/09/02 07:15:02;;;;;;;0.43;0.40;;;20.80;45.50;;;;;;5030186;28;20021;-71
2022/09/02 07:17:28;;;;;;;0.40;0.40;;;21.00;45.50;;;;;;5029928;28;20337;-71
2022/09/02 07:19:58;;;;;;;0.40;0.40;;;21.00;45.40;;;;;;5029924;28;20041;-71
2022/09/02 07:22:24;;;;;;;0.80;0.28;;;21.00;45.40;;;;;;5029249;28;20432;-71
2022/09/02 07:24:50;;;;;;;0.40;0.30;;;21.10;45.30;;;;;;5012116;28;20091;-71
2022/09/02 07:27:16;;;;;;;0.25;0.25;;;21.20;45.10;;;;;;5029261;28;20033;-71
2022/09/02 07:29:43;;;;;;;2.60;0.45;;;21.30;45.00;;;;;;5012609;28;20025;-71
2022/09/02 07:32:09;;;;;;;0.45;0.40;;;21.30;45.00;;;;;;5030352;28;20446;-66
2022/09/02 07:34:35;;;;;;;0.30;0.30;;;21.40;44.90;;;;;;5035251;28;20032;-67
2022/09/02 07:37:01;;;;;;;0.65;0.50;;;21.50;44.80;;;;;;5035749;28;20033;-67
2022/09/02 07:39:26;;;;;;;0.70;0.55;;;21.60;44.80;;;;;;5033409;28;20543;-67
2022/09/02 07:41:52;;;;;;;1.05;0.50;;;21.60;44.60;;;;;;5029216;28;20037;-67
2022/09/02 07:44:20;;;;;;;0.65;0.55;;;21.70;44.40;;;;;;5034765;28;20025;-67
2022/09/02 07:46:46;;;;;;;0.30;0.30;;;21.70;44.30;;;;;;5036390;28;20033;-67
2022/09/02 07:49:14;;;;;;;0.40;0.40;;;21.80;44.30;;;;;;5030375;28;20033;-67
2022/09/02 07:51:43;;;;;;;0.32;0.32;;;21.90;44.40;;;;;;5025827;28;20021;-71
2022/09/02 07:54:11;;;;;;;0.55;0.50;;;22.00;44.30;;;;;;5025689;28;20485;-67
2022/09/02 07:56:37;;;;;;;0.55;0.50;;;22.20;44.20;;;;;;5028755;28;20408;-71
2022/09/02 07:59:03;;;;;;;2.15;0.50;;;22.20;44.00;;;;;;5024052;28;20034;-67
2022/09/02 08:01:29;;;;;;;0.40;0.40;;;22.30;43.90;;;;;;5032947;28;20467;-67
2022/09/02 08:03:56;;;;;;;0.32;0.32;;;22.40;43.80;;;;;;5021062;28;20032;-67
2022/09/02 08:06:25;;;;;;;0.35;0.35;;;22.40;43.80;;;;;;5015066;28;20061;-67
2022/09/02 08:08:52;;;;;;;0.93;0.50;;;22.40;43.80;;;;;;5021454;28;20018;-67
2022/09/02 08:11:18;;;;;;;0.55;0.35;;;22.40;43.90;;;;;;5037367;28;20053;-67
2022/09/02 08:13:44;;;;;;;0.80;0.70;;;22.50;44.10;;;;;;5020075;28;20122;-67
2022/09/02 08:16:10;;;;;;;0.43;0.43;;;22.60;44.00;;;;;;5035148;28;20029;-67
2022/09/02 08:18:36;;;;;;;0.70;0.65;;;22.70;43.90;;;;;;5041584;28;20452;-67
2022/09/02 08:21:02;;;;;;;0.40;0.40;;;22.80;43.70;;;;;;5011676;28;20095;-71
2022/09/02 08:23:28;;;;;;;0.63;0.45;;;22.90;43.40;;;;;;5011399;28;20046;-71
2022/09/02 08:25:54;;;;;;;0.43;0.43;;;23.00;43.40;;;;;;5028211;28;20393;-71
2022/09/02 08:28:20;;;;;;;0.90;0.47;;;23.10;43.20;;;;;;5026613;28;20083;-72
2022/09/02 08:30:45;;;;;;;0.43;0.43;;;23.10;43.10;;;;;;5021427;28;20063;-67
2022/09/02 08:33:11;;;;;;;0.40;0.40;;;23.30;43.00;;;;;;5004000;28;20034;-71
2022/09/02 08:35:37;;;;;;;0.40;0.40;;;23.40;43.00;;;;;;5009850;28;20042;-67
2022/09/02 08:38:03;;;;;;;0.55;0.40;;;23.50;42.90;;;;;;5034373;28;20044;-72
2022/09/02 08:40:40;;;;;;;0.40;0.40;;;23.60;42.80;;;;;;4977490;28;20037;-72
2022/09/02 08:43:38;;;;;;;1.02;0.50;;;23.70;42.50;;;;;;5028380;28;20025;-71
2022/09/02 08:46:09;;;;;;;0.73;0.73;;;23.70;42.50;;;;;;5027529;28;20432;-67
2022/09/02 08:48:51;;;;;;;0.47;0.30;;;23.80;42.40;;;;;;5029098;28;20053;-67
2022/09/02 08:51:30;;;;;;;0.43;0.43;;;23.90;42.40;;;;;;5027359;28;20400;-67
2022/09/02 08:54:10;;;;;;;0.40;0.40;;;23.90;42.20;;;;;;5025160;28;20033;-72
2022/09/02 08:56:36;;;;;;;0.30;0.30;;;24.00;42.20;;;;;;5011836;28;20910;-72
2022/09/02 08:59:03;;;;;;;2.03;0.70;;;24.00;42.10;;;;;;5005675;28;20033;-71
2022/09/02 09:01:47;;;;;;;1.67;0.43;;;24.00;42.10;;;;;;5028022;28;20025;-72
2022/09/02 09:04:44;;;;;;;2.38;0.40;;;24.00;42.10;;;;;;5023333;28;20074;-72
2022/09/02 09:07:31;;;;;;;0.40;0.40;;;24.10;42.10;;;;;;5029599;28;20095;-72
2022/09/02 09:10:27;;;;;;;1.63;0.50;;;24.20;42.10;;;;;;5029950;28;20030;-72
2022/09/02 09:13:22;;;;;;;0.40;0.40;;;24.20;42.10;;;;;;5031269;28;20551;-72
2022/09/02 09:16:04;;;;;;;0.45;0.45;;;24.30;42.70;;;;;;5027929;28;20505;-71
2022/09/02 09:18:43;;;;;;;1.35;1.25;;;24.40;42.00;;;;;;5028641;28;20504;-67
2022/09/02 09:21:09;;;;;;;0.43;0.43;;;24.40;42.00;;;;;;5031187;28;20033;-67
2022/09/02 09:23:38;;;;;;;3.50;0.80;;;24.30;41.90;;;;;;5033460;28;20041;-67
2022/09/02 09:26:19;;;;;;;0.60;0.60;;;24.40;41.90;;;;;;5012660;28;20073;-67
2022/09/02 09:28:49;;;;;;;0.38;0.38;;;24.40;41.90;;;;;;5039694;28;20017;-67
2022/09/02 09:31:20;;;;;;;0.60;0.40;;;24.50;41.90;;;;;;5027410;28;20048;-71
2022/09/02 09:34:01;;;;;;;0.40;0.40;;;24.60;41.80;;;;;;5010109;28;20095;-72
2022/09/02 09:36:39;;;;;;;0.55;0.55;;;24.80;41.60;;;;;;5030666;28;20101;-72
2022/09/02 09:39:24;;;;;;;0.77;0.40;;;24.90;41.40;;;;;;5035161;28;20067;-72
2022/09/02 09:41:55;;;;;;;1.10;0.47;;;25.10;41.30;;;;;;5025936;28;20566;-71
2022/09/02 09:44:48;;;;;;;1.00;0.50;;;25.10;41.20;;;;;;5011876;28;20477;-72
2022/09/02 09:47:21;;;;;;;6.38;0.90;;;25.20;41.10;;;;;;5023907;28;20053;-72
2022/09/02 09:49:49;;;;;;;0.50;0.50;;;25.30;41.10;;;;;;5012304;28;20593;-67
2022/09/02 09:52:28;;;;;;;0.60;0.50;;;25.40;41.00;;;;;;5032561;28;20033;-67
2022/09/02 09:55:11;;;;;;;0.68;0.68;;;25.50;41.40;;;;;;5028916;28;20124;-67
2022/09/02 09:57:42;;;;;;;1.30;0.88;;;25.60;40.90;;;;;;5026419;28;20520;-67
2022/09/02 10:00:24;;;;;;;0.40;0.40;;;25.70;40.70;;;;;;5039492;28;20388;-72
2022/09/02 10:02:53;;;;;;;1.98;0.73;;;25.80;40.70;;;;;;5031484;28;20025;-67
2022/09/02 10:05:24;;;;;;;0.50;0.50;;;26.00;40.60;;;;;;5038830;28;20052;-72
2022/09/02 10:08:21;;;;;;;1.02;0.77;;;26.20;40.30;;;;;;5026766;28;20596;-67
2022/09/02 10:11:01;;;;;;;0.73;0.73;;;26.50;40.20;;;;;;5016114;28;20396;-67
2022/09/02 10:13:30;;;;;;;0.50;0.50;;;26.60;40.00;;;;;;5028964;28;20497;-68
2022/09/02 10:16:14;;;;;;;0.77;0.77;;;26.70;39.90;;;;;;5031967;28;20025;-72
2022/09/02 10:18:55;;;;;;;0.65;0.60;;;26.80;39.70;;;;;;5015693;28;20037;-67
2022/09/02 10:21:58;;;;;;;1.23;0.80;;;26.90;39.40;;;;;;5030339;28;20030;-67
2022/09/02 10:24:41;;;;;;;1.17;0.88;;;27.10;39.40;;;;;;5028896;28;20079;-67
2022/09/02 10:27:09;;;;;;;0.63;0.63;;;27.20;39.10;;;;;;5012841;28;20459;-67
2022/09/02 10:29:38;;;;;;;0.82;0.70;;;27.30;39.10;;;;;;5042583;28;20021;-67
2022/09/02 10:32:18;;;;;;;0.70;0.70;;;27.30;39.00;;;;;;5035711;28;20028;-67
2022/09/02 10:34:52;;;;;;;0.88;0.75;;;27.50;39.10;;;;;;5031270;28;20087;-67
2022/09/02 10:37:22;;;;;;;0.50;0.50;;;27.60;39.00;;;;;;5030100;28;20021;-68
2022/09/02 10:39:50;;;;;;;0.50;0.50;;;27.80;38.90;;;;;;5030860;28;20388;-68
2022/09/02 10:42:39;;;;;;;0.70;0.70;;;28.00;38.70;;;;;;5020554;28;20075;-72
2022/09/02 10:45:30;;;;;;;0.50;0.50;;;28.20;38.60;;;;;;5025915;28;20029;-71
2022/09/02 10:48:05;;;;;;;0.70;0.60;;;28.30;38.50;;;;;;5029873;28;20029;-67
2022/09/02 10:50:42;;;;;;;0.60;0.57;;;28.30;38.40;;;;;;5039913;28;20104;-67
2022/09/02 10:53:21;;;;;;;0.60;0.60;;;28.30;38.40;;;;;;5011820;28;20411;-67
2022/09/02 10:55:57;;;;;;;1.48;0.80;;;28.40;38.40;;;;;;5011788;28;20032;-72
2022/09/02 10:58:42;;;;;;;1.20;0.60;;;28.50;38.20;;;;;;5028126;28;20509;-67
2022/09/02 11:01:12;;;;;;;1.58;0.70;;;28.50;38.00;;;;;;5021917;28;20025;-67
2022/09/02 11:03:44;;;;;;;1.77;0.80;;;28.50;38.20;;;;;;5028371;28;20480;-72
2022/09/02 11:06:38;;;;;;;0.60;0.60;;;28.60;38.20;;;;;;5032848;28;20489;-72
2022/09/02 11:09:32;;;;;;;0.80;0.63;;;28.70;38.00;;;;;;5018121;28;20045;-72
2022/09/02 11:12:08;;;;;;;0.85;0.85;;;28.80;37.80;;;;;;5026256;28;20108;-72
2022/09/02 11:15:03;;;;;;;0.90;0.90;;;28.70;37.40;;;;;;5010713;28;20029;-70
2022/09/02 11:17:52;;;;;;;0.82;0.82;;;28.70;37.60;;;;;;5033278;28;20053;-72
2022/09/02 11:20:18;;;;;;;0.57;0.57;;;28.80;37.70;;;;;;5035368;28;20048;-67
2022/09/02 11:23:03;;;;;;;0.93;0.88;;;29.10;37.60;;;;;;5012217;28;20045;-69
2022/09/02 11:25:32;;;;;;;0.50;0.50;;;29.20;37.50;;;;;;5031504;28;20029;-68
2022/09/02 11:28:16;;;;;;;0.47;0.47;;;29.10;37.50;;;;;;5030006;28;20072;-68
2022/09/02 11:30:52;;;;;;;1.20;0.80;;;29.10;37.60;;;;;;5032462;28;20431;-68
2022/09/02 11:33:56;;;;;;;0.80;0.80;;;29.10;37.40;;;;;;5040948;28;20530;-67
2022/09/02 11:36:25;;;;;;;0.80;0.80;;;29.00;37.10;;;;;;5038751;28;20030;-68
2022/09/02 11:38:56;;;;;;;1.00;0.88;;;29.00;36.90;;;;;;5019934;28;20044;-68
2022/09/02 11:41:57;;;;;;;0.65;0.65;;;29.00;36.60;;;;;;5041902;28;20052;-68
2022/09/02 11:44:29;;;;;;;0.75;0.75;;;29.20;36.60;;;;;;4949383;28;20023;-68
2022/09/02 11:47:19;;;;;;;0.60;0.60;;;29.30;36.30;;;;;;5025178;28;20052;-68
2022/09/02 11:50:00;;;;;;;0.70;0.70;;;29.50;36.20;;;;;;5036168;28;20519;-68
2022/09/02 11:53:03;;;;;;;1.20;1.10;;;29.70;35.60;;;;;;5039163;28;20452;-67
2022/09/02 11:55:42;;;;;;;1.00;1.00;;;29.90;34.70;;;;;;5007849;28;20040;-68
2022/09/02 11:58:07;;;;;;;0.75;0.68;;;29.80;34.00;;;;;;5032324;28;20492;-68
2022/09/02 12:00:45;;;;;;;0.90;0.80;;;29.80;34.60;;;;;;4978325;28;20048;-67
2022/09/02 12:03:16;;;;;;;0.90;0.90;;;29.80;33.90;;;;;;5011798;28;20048;-67
2022/09/02 12:05:42;;;;;;;0.73;0.73;;;30.00;34.00;;;;;;5035079;28;20080;-68
2022/09/02 12:08:34;;;;;;;0.95;0.82;;;30.20;33.70;;;;;;5031877;28;20037;-67
2022/09/02 12:11:05;;;;;;;0.70;0.70;;;30.20;33.20;;;;;;5019217;28;20031;-67
2022/09/02 12:13:42;;;;;;;0.63;0.63;;;30.10;33.30;;;;;;5037769;28;20025;-71
2022/09/02 12:16:20;;;;;;;0.73;0.50;;;30.30;33.50;;;;;;5033735;28;20021;-67
2022/09/02 12:18:56;;;;;;;0.70;0.70;;;30.60;33.50;;;;;;5044190;28;20022;-66
2022/09/02 12:21:26;;;;;;;0.70;0.70;;;30.90;33.00;;;;;;5047734;28;20020;-67
2022/09/02 12:23:54;;;;;;;1.35;0.90;;;31.10;32.70;;;;;;5030423;28;20069;-67
2022/09/02 12:26:49;;;;;;;0.70;0.70;;;31.30;32.20;;;;;;5015555;28;20475;-67
2022/09/02 12:29:18;;;;;;;1.75;0.80;;;31.50;32.10;;;;;;5033526;28;20036;-67
2022/09/02 12:31:48;;;;;;;0.70;0.70;;;31.60;31.70;;;;;;5033278;28;20021;-72
2022/09/02 12:34:20;;;;;;;0.60;0.60;;;31.60;31.70;;;;;;5012443;28;20037;-67
2022/09/02 12:36:52;;;;;;;;;;;31.20;31.50;;;;;;5039095;28;20025;-67
2022/09/02 12:39:26;;;;;;;0.60;0.60;;;31.10;31.30;;;;;;5027037;28;19909;-72
2022/09/02 12:41:57;;;;;;;3.42;0.73;;;31.20;31.40;;;;;;5030712;28;20021;-72
2022/09/02 12:44:27;;;;;;;;;;;31.40;31.30;;;;;;5030952;28;20494;-72
2022/09/02 12:47:25;;;;;;;0.70;0.65;;;31.60;31.10;;;;;;5029890;28;20365;-72
2022/09/02 12:49:54;;;;;;;0.77;0.70;;;31.50;30.30;;;;;;5030087;28;20108;-72
2022/09/02 12:52:34;;;;;;;0.63;0.63;;;31.30;30.80;;;;;;5031581;28;20030;-72
2022/09/02 12:55:18;;;;;;;2.37;0.63;;;31.40;30.80;;;;;;5029780;28;20033;-72
2022/09/02 12:57:56;;;;;;;0.50;0.50;;;31.20;30.70;;;;;;5029702;28;20333;-72
2022/09/02 13:00:50;;;;;;;0.82;0.82;;;31.40;31.00;;;;;;5012901;28;20029;-71
2022/09/02 13:03:37;;;;;;;0.60;0.60;;;31.60;30.70;;;;;;5030417;28;20048;-72
2022/09/02 13:06:39;;;;;;;0.77;0.77;;;31.80;30.50;;;;;;5032190;28;20476;-67
2022/09/02 13:09:31;;;;;;;0.80;0.80;;;31.80;30.60;;;;;;5031170;28;20431;-67
2022/09/02 13:12:20;;;;;;;0.73;0.73;;;32.00;30.60;;;;;;5046428;28;20476;-71